PWSweather.com
Personal Weather Stations
Station Observations
2450ARBOR
Round Rock, TX 78681

Round Rock, TX 78681

Lat: 30.535239, Lon: -97.728137

Elevation: 800

Station Type:

High Low Average
Temperature 74.5°F23.6°C 48.7°F9.3°C 60.0°F15.6°C
Dew Point 57.0°F13.9°C 47.0°F8.3°C 52.7°F11.5°C
Winds 3.0 mph 4.8 kmh Calm Calm Calm SCalm S
Wind Gusts 4.0 mph6.4 kmh -- 1.0 mph1.6 kmh
Humidity 98% 43% 80%
Pressure 30.21 in1023.0 mb 30.10 in1019.3 mb -
Precipitation 0.00 in0.0 mm - -
Hour Temp Dew Point Humidity Winds Wind Gusts Pressure Precip Precip Rate Daily Precip Total
12:01 AM 56.5°F13.6°C 56.0°F13.3°C 98% Calm Calm -- 30.17 in1021.7 mb 0.00 in0.0 mm 0.00 in0.0 mm 0.01 in0.3 mm
12:40 AM 57.0°F13.9°C 56.0°F13.3°C 98% Calm Calm -- 30.17 in1021.7 mb 0.00 in0.0 mm 0.00 in0.0 mm 0.01 in0.3 mm
01:11 AM 57.2°F14.0°C 57.0°F13.9°C 98% Calm Calm 1.0 mph1.6 kmh 30.16 in1021.3 mb 0.00 in0.0 mm 0.00 in0.0 mm 0.00 in0.0 mm
01:31 AM 57.0°F13.9°C 56.0°F13.3°C 98% 1.0 mph SSE1.6 kmh SSE 2.0 mph3.2 kmh 30.15 in1021.0 mb 0.00 in0.0 mm 0.00 in0.0 mm 0.00 in0.0 mm
02:10 AM 57.0°F13.9°C 56.0°F13.3°C 98% 1.0 mph S1.6 kmh S 3.0 mph4.8 kmh 30.14 in1020.7 mb 0.00 in0.0 mm 0.00 in0.0 mm 0.00 in0.0 mm
02:21 AM 57.0°F13.9°C 56.0°F13.3°C 98% 2.0 mph SSW3.2 kmh SSW 2.0 mph3.2 kmh 30.13 in1020.3 mb 0.00 in0.0 mm 0.00 in0.0 mm 0.00 in0.0 mm
02:50 AM 56.8°F13.8°C 56.0°F13.3°C 97% Calm Calm 2.0 mph3.2 kmh 30.13 in1020.3 mb 0.00 in0.0 mm 0.00 in0.0 mm 0.00 in0.0 mm
03:20 AM 56.7°F13.7°C 56.0°F13.3°C 97% 2.0 mph S3.2 kmh S 2.0 mph3.2 kmh 30.13 in1020.3 mb 0.00 in0.0 mm 0.00 in0.0 mm 0.00 in0.0 mm
03:41 AM 56.7°F13.7°C 56.0°F13.3°C 97% 3.0 mph SSW4.8 kmh SSW 4.0 mph6.4 kmh 30.13 in1020.3 mb 0.00 in0.0 mm 0.00 in0.0 mm 0.00 in0.0 mm
04:01 AM 56.5°F13.6°C 56.0°F13.3°C 97% 2.0 mph WNW3.2 kmh WNW 3.0 mph4.8 kmh 30.14 in1020.7 mb 0.00 in0.0 mm 0.00 in0.0 mm 0.00 in0.0 mm
04:40 AM 56.5°F13.6°C 56.0°F13.3°C 97% 1.0 mph WSW1.6 kmh WSW 3.0 mph4.8 kmh 30.14 in1020.7 mb 0.00 in0.0 mm 0.00 in0.0 mm 0.00 in0.0 mm
04:50 AM 56.5°F13.6°C 56.0°F13.3°C 97% Calm Calm 3.0 mph4.8 kmh 30.14 in1020.7 mb 0.00 in0.0 mm 0.00 in0.0 mm 0.00 in0.0 mm
05:01 AM 56.5°F13.6°C 55.0°F12.8°C 96% Calm Calm 2.0 mph3.2 kmh 30.14 in1020.7 mb 0.00 in0.0 mm 0.00 in0.0 mm 0.00 in0.0 mm
05:40 AM 56.3°F13.5°C 55.0°F12.8°C 96% 2.0 mph WSW3.2 kmh WSW 2.0 mph3.2 kmh 30.13 in1020.3 mb 0.00 in0.0 mm 0.00 in0.0 mm 0.00 in0.0 mm
05:50 AM 56.1°F13.4°C 55.0°F12.8°C 95% 2.0 mph SW3.2 kmh SW 4.0 mph6.4 kmh 30.13 in1020.3 mb 0.00 in0.0 mm 0.00 in0.0 mm 0.00 in0.0 mm
06:10 AM 55.9°F13.3°C 54.0°F12.2°C 95% 2.0 mph ESE3.2 kmh ESE 3.0 mph4.8 kmh 30.13 in1020.3 mb 0.00 in0.0 mm 0.00 in0.0 mm 0.00 in0.0 mm
06:40 AM 55.8°F13.2°C 54.0°F12.2°C 95% 2.0 mph WSW3.2 kmh WSW 3.0 mph4.8 kmh 30.13 in1020.3 mb 0.00 in0.0 mm 0.00 in0.0 mm 0.00 in0.0 mm
07:01 AM 55.0°F12.8°C 54.0°F12.2°C 95% Calm Calm 1.0 mph1.6 kmh 30.13 in1020.3 mb 0.00 in0.0 mm 0.00 in0.0 mm 0.00 in0.0 mm
07:20 AM 54.1°F12.3°C 53.0°F11.7°C 95% Calm Calm -- 30.13 in1020.3 mb 0.00 in0.0 mm 0.00 in0.0 mm 0.00 in0.0 mm
07:50 AM 52.9°F11.6°C 52.0°F11.1°C 96% Calm Calm -- 30.13 in1020.3 mb 0.00 in0.0 mm 0.00 in0.0 mm 0.00 in0.0 mm
08:20 AM 51.6°F10.9°C 50.0°F10.0°C 96% Calm Calm -- 30.14 in1020.7 mb 0.00 in0.0 mm 0.00 in0.0 mm 0.00 in0.0 mm
08:40 AM 51.3°F10.7°C 50.0°F10.0°C 97% Calm Calm -- 30.14 in1020.7 mb 0.00 in0.0 mm 0.00 in0.0 mm 0.00 in0.0 mm
09:01 AM 50.9°F10.5°C 50.0°F10.0°C 97% Calm Calm -- 30.16 in1021.3 mb 0.00 in0.0 mm 0.00 in0.0 mm 0.00 in0.0 mm
09:20 AM 51.8°F11.0°C 51.0°F10.6°C 98% Calm Calm -- 30.16 in1021.3 mb 0.00 in0.0 mm 0.00 in0.0 mm 0.00 in0.0 mm
09:40 AM 52.3°F11.3°C 52.0°F11.1°C 98% Calm Calm -- 30.16 in1021.3 mb 0.00 in0.0 mm 0.00 in0.0 mm 0.00 in0.0 mm
09:50 AM 52.9°F11.6°C 52.0°F11.1°C 98% Calm Calm -- 30.16 in1021.3 mb 0.00 in0.0 mm 0.00 in0.0 mm 0.00 in0.0 mm
10:31 AM 56.3°F13.5°C 54.0°F12.2°C 91% 1.0 mph W1.6 kmh W 1.0 mph1.6 kmh 30.18 in1022.0 mb 0.00 in0.0 mm 0.00 in0.0 mm 0.00 in0.0 mm
10:40 AM 57.4°F14.1°C 54.0°F12.2°C 88% Calm Calm 2.0 mph3.2 kmh 30.19 in1022.4 mb 0.00 in0.0 mm 0.00 in0.0 mm 0.00 in0.0 mm
10:50 AM 59.2°F15.1°C 55.0°F12.8°C 86% 1.0 mph 1.6 kmh 2.0 mph3.2 kmh 30.19 in1022.4 mb 0.00 in0.0 mm 0.00 in0.0 mm 0.00 in0.0 mm
11:40 AM 62.4°F16.9°C 55.0°F12.8°C 76% 2.0 mph SSE3.2 kmh SSE 2.0 mph3.2 kmh 30.20 in1022.7 mb 0.00 in0.0 mm 0.00 in0.0 mm 0.00 in0.0 mm
11:50 AM 63.1°F17.3°C 55.0°F12.8°C 75% 2.0 mph W3.2 kmh W 2.0 mph3.2 kmh 30.20 in1022.7 mb 0.00 in0.0 mm 0.00 in0.0 mm 0.00 in0.0 mm
12:01 PM 64.2°F17.9°C 55.0°F12.8°C 72% 1.0 mph SSW1.6 kmh SSW 2.0 mph3.2 kmh 30.21 in1023.0 mb 0.00 in0.0 mm 0.00 in0.0 mm 0.00 in0.0 mm
12:50 PM 67.6°F19.8°C 55.0°F12.8°C 65% Calm Calm -- 30.21 in1023.0 mb 0.00 in0.0 mm 0.00 in0.0 mm 0.00 in0.0 mm
01:21 PM 68.5°F20.3°C 56.0°F13.3°C 64% 1.0 mph SSE1.6 kmh SSE 1.0 mph1.6 kmh 30.21 in1023.0 mb 0.00 in0.0 mm 0.00 in0.0 mm 0.00 in0.0 mm
02:01 PM 71.1°F21.7°C 55.0°F12.8°C 56% Calm Calm 2.0 mph3.2 kmh 30.17 in1021.7 mb 0.00 in0.0 mm 0.00 in0.0 mm 0.00 in0.0 mm
02:10 PM 71.2°F21.8°C 54.0°F12.2°C 55% Calm Calm 3.0 mph4.8 kmh 30.17 in1021.7 mb 0.00 in0.0 mm 0.00 in0.0 mm 0.00 in0.0 mm
02:31 PM 73.0°F22.8°C 55.0°F12.8°C 53% Calm Calm -- 30.17 in1021.7 mb 0.00 in0.0 mm 0.00 in0.0 mm 0.00 in0.0 mm
02:51 PM 73.8°F23.2°C 55.0°F12.8°C 52% Calm Calm -- 30.17 in1021.7 mb 0.00 in0.0 mm 0.00 in0.0 mm 0.00 in0.0 mm
03:01 PM 73.9°F23.3°C 54.0°F12.2°C 50% Calm Calm 1.0 mph1.6 kmh 30.12 in1020.0 mb 0.00 in0.0 mm 0.00 in0.0 mm 0.00 in0.0 mm
03:20 PM 74.5°F23.6°C 54.0°F12.2°C 49% Calm Calm 2.0 mph3.2 kmh 30.12 in1020.0 mb 0.00 in0.0 mm 0.00 in0.0 mm 0.00 in0.0 mm
03:51 PM 74.3°F23.5°C 52.0°F11.1°C 46% Calm Calm -- 30.12 in1020.0 mb 0.00 in0.0 mm 0.00 in0.0 mm 0.00 in0.0 mm
04:10 PM 74.3°F23.5°C 52.0°F11.1°C 45% Calm Calm -- 30.10 in1019.3 mb 0.00 in0.0 mm 0.00 in0.0 mm 0.00 in0.0 mm
04:31 PM 74.1°F23.4°C 50.0°F10.0°C 43% Calm Calm -- 30.10 in1019.3 mb 0.00 in0.0 mm 0.00 in0.0 mm 0.00 in0.0 mm
04:40 PM 74.1°F23.4°C 51.0°F10.6°C 45% Calm Calm -- 30.10 in1019.3 mb 0.00 in0.0 mm 0.00 in0.0 mm 0.00 in0.0 mm
05:31 PM 73.0°F22.8°C 52.0°F11.1°C 47% Calm Calm -- 30.10 in1019.3 mb 0.00 in0.0 mm 0.00 in0.0 mm 0.00 in0.0 mm
05:40 PM 72.3°F22.4°C 51.0°F10.6°C 47% Calm Calm -- 30.10 in1019.3 mb 0.00 in0.0 mm 0.00 in0.0 mm 0.00 in0.0 mm
06:01 PM 70.9°F21.6°C 51.0°F10.6°C 50% Calm Calm -- 30.10 in1019.3 mb 0.00 in0.0 mm 0.00 in0.0 mm 0.00 in0.0 mm
06:31 PM 67.6°F19.8°C 51.0°F10.6°C 56% Calm Calm -- 30.10 in1019.3 mb 0.00 in0.0 mm 0.00 in0.0 mm 0.00 in0.0 mm
07:01 PM 63.7°F17.6°C 50.0°F10.0°C 62% Calm Calm -- 30.11 in1019.6 mb 0.00 in0.0 mm 0.00 in0.0 mm 0.00 in0.0 mm
07:10 PM 62.6°F17.0°C 51.0°F10.6°C 65% Calm Calm -- 30.11 in1019.6 mb 0.00 in0.0 mm 0.00 in0.0 mm 0.00 in0.0 mm
07:51 PM 58.5°F14.7°C 50.0°F10.0°C 73% Calm Calm -- 30.11 in1019.6 mb 0.00 in0.0 mm 0.00 in0.0 mm 0.00 in0.0 mm
08:01 PM 57.9°F14.4°C 50.0°F10.0°C 75% Calm Calm -- 30.14 in1020.7 mb 0.00 in0.0 mm 0.00 in0.0 mm 0.00 in0.0 mm
08:50 PM 54.5°F12.5°C 49.0°F9.4°C 83% Calm Calm -- 30.14 in1020.7 mb 0.00 in0.0 mm 0.00 in0.0 mm 0.00 in0.0 mm
09:01 PM 54.5°F12.5°C 49.0°F9.4°C 83% Calm Calm -- 30.15 in1021.0 mb 0.00 in0.0 mm 0.00 in0.0 mm 0.00 in0.0 mm
09:21 PM 55.2°F12.9°C 51.0°F10.6°C 85% Calm Calm -- 30.15 in1021.0 mb 0.00 in0.0 mm 0.00 in0.0 mm 0.00 in0.0 mm
10:01 PM 54.1°F12.3°C 50.0°F10.0°C 87% Calm Calm -- 30.15 in1021.0 mb 0.00 in0.0 mm 0.00 in0.0 mm 0.00 in0.0 mm
10:20 PM 53.8°F12.1°C 50.0°F10.0°C 88% Calm Calm 1.0 mph1.6 kmh 30.15 in1021.0 mb 0.00 in0.0 mm 0.00 in0.0 mm 0.00 in0.0 mm
10:50 PM 52.9°F11.6°C 49.0°F9.4°C 88% Calm Calm -- 30.15 in1021.0 mb 0.00 in0.0 mm 0.00 in0.0 mm 0.00 in0.0 mm
11:01 PM 52.2°F11.2°C 49.0°F9.4°C 89% Calm Calm -- 30.14 in1020.7 mb 0.00 in0.0 mm 0.00 in0.0 mm 0.00 in0.0 mm
11:40 PM 50.5°F10.3°C 48.0°F8.9°C 91% Calm Calm -- 30.14 in1020.7 mb 0.00 in0.0 mm 0.00 in0.0 mm 0.00 in0.0 mm
11:50 PM 50.0°F10.0°C 48.0°F8.9°C 91% Calm Calm -- 30.14 in1020.7 mb 0.00 in0.0 mm 0.00 in0.0 mm 0.00 in0.0 mm